sensor_id;sensor_type;location;lat;lon;timestamp;P1;durP1;ratioP1;P2;durP2;ratioP2
66402;SDS011;53212;52.112;5.144;2023-04-06T00:01:30;14.40;;;12.00;;
66402;SDS011;53212;52.112;5.144;2023-04-06T00:03:56;14.30;;;12.70;;
66402;SDS011;53212;52.112;5.144;2023-04-06T00:06:21;14.70;;;11.60;;
66402;SDS011;53212;52.112;5.144;2023-04-06T00:08:47;15.40;;;12.70;;
66402;SDS011;53212;52.112;5.144;2023-04-06T00:11:12;16.60;;;12.60;;
66402;SDS011;53212;52.112;5.144;2023-04-06T00:13:38;13.50;;;12.00;;
66402;SDS011;53212;52.112;5.144;2023-04-06T00:16:03;13.10;;;11.60;;
66402;SDS011;53212;52.112;5.144;2023-04-06T00:18:30;13.60;;;11.50;;
66402;SDS011;53212;52.112;5.144;2023-04-06T00:20:56;12.60;;;11.20;;
66402;SDS011;53212;52.112;5.144;2023-04-06T00:23:22;15.70;;;12.30;;
66402;SDS011;53212;52.112;5.144;2023-04-06T00:25:47;15.90;;;11.60;;
66402;SDS011;53212;52.112;5.144;2023-04-06T00:28:13;13.40;;;11.90;;
66402;SDS011;53212;52.112;5.144;2023-04-06T00:30:40;14.70;;;12.20;;
66402;SDS011;53212;52.112;5.144;2023-04-06T00:33:06;15.80;;;11.40;;
66402;SDS011;53212;52.112;5.144;2023-04-06T00:35:31;14.50;;;12.10;;
66402;SDS011;53212;52.112;5.144;2023-04-06T00:37:57;13.80;;;11.70;;
66402;SDS011;53212;52.112;5.144;2023-04-06T00:40:22;13.80;;;12.30;;
66402;SDS011;53212;52.112;5.144;2023-04-06T00:42:48;14.90;;;12.50;;
66402;SDS011;53212;52.112;5.144;2023-04-06T00:45:14;14.40;;;11.60;;
66402;SDS011;53212;52.112;5.144;2023-04-06T00:47:40;14.80;;;12.40;;
66402;SDS011;53212;52.112;5.144;2023-04-06T00:50:05;16.30;;;12.30;;
66402;SDS011;53212;52.112;5.144;2023-04-06T00:52:32;15.20;;;12.40;;
66402;SDS011;53212;52.112;5.144;2023-04-06T00:54:59;14.20;;;11.30;;
66402;SDS011;53212;52.112;5.144;2023-04-06T00:57:24;14.40;;;12.20;;
66402;SDS011;53212;52.112;5.144;2023-04-06T00:59:50;13.90;;;11.30;;
66402;SDS011;53212;52.112;5.144;2023-04-06T01:02:17;13.60;;;11.00;;
66402;SDS011;53212;52.112;5.144;2023-04-06T01:04:42;13.60;;;10.70;;
66402;SDS011;53212;52.112;5.144;2023-04-06T01:07:08;15.70;;;10.40;;
66402;SDS011;53212;52.112;5.144;2023-04-06T01:09:33;13.80;;;10.90;;
66402;SDS011;53212;52.112;5.144;2023-04-06T01:11:59;12.60;;;11.20;;
66402;SDS011;53212;52.112;5.144;2023-04-06T01:14:24;13.30;;;10.80;;
66402;SDS011;53212;52.112;5.144;2023-04-06T01:16:51;16.20;;;10.60;;
66402;SDS011;53212;52.112;5.144;2023-04-06T01:19:17;12.90;;;10.90;;
66402;SDS011;53212;52.112;5.144;2023-04-06T01:21:43;12.90;;;10.00;;
66402;SDS011;53212;52.112;5.144;2023-04-06T01:24:08;13.40;;;10.90;;
66402;SDS011;53212;52.112;5.144;2023-04-06T01:26:35;12.90;;;11.30;;
66402;SDS011;53212;52.112;5.144;2023-04-06T01:29:02;12.10;;;10.60;;
66402;SDS011;53212;52.112;5.144;2023-04-06T01:31:28;13.40;;;10.50;;
66402;SDS011;53212;52.112;5.144;2023-04-06T01:33:54;14.20;;;10.70;;
66402;SDS011;53212;52.112;5.144;2023-04-06T01:36:20;12.00;;;10.30;;
66402;SDS011;53212;52.112;5.144;2023-04-06T01:38:45;14.30;;;11.00;;
66402;SDS011;53212;52.112;5.144;2023-04-06T01:41:11;15.90;;;11.60;;
66402;SDS011;53212;52.112;5.144;2023-04-06T01:43:37;16.60;;;11.20;;
66402;SDS011;53212;52.112;5.144;2023-04-06T01:46:02;14.30;;;11.20;;
66402;SDS011;53212;52.112;5.144;2023-04-06T01:48:28;15.70;;;11.60;;
66402;SDS011;53212;52.112;5.144;2023-04-06T01:50:54;15.90;;;12.00;;
66402;SDS011;53212;52.112;5.144;2023-04-06T01:53:20;13.60;;;11.10;;
66402;SDS011;53212;52.112;5.144;2023-04-06T01:55:46;16.10;;;11.50;;
66402;SDS011;53212;52.112;5.144;2023-04-06T01:58:12;14.40;;;11.60;;
66402;SDS011;53212;52.112;5.144;2023-04-06T02:00:39;14.60;;;10.10;;
66402;SDS011;53212;52.112;5.144;2023-04-06T02:03:05;12.70;;;10.60;;
66402;SDS011;53212;52.112;5.144;2023-04-06T02:05:31;15.40;;;11.50;;
66402;SDS011;53212;52.112;5.144;2023-04-06T02:08:07;14.30;;;10.50;;
66402;SDS011;53212;52.112;5.144;2023-04-06T02:10:33;13.00;;;9.90;;
66402;SDS011;53212;52.112;5.144;2023-04-06T02:12:59;12.60;;;10.10;;
66402;SDS011;53212;52.112;5.144;2023-04-06T02:15:25;12.60;;;10.00;;
66402;SDS011;53212;52.112;5.144;2023-04-06T02:17:51;12.90;;;9.60;;
66402;SDS011;53212;52.112;5.144;2023-04-06T02:20:17;10.80;;;9.70;;
66402;SDS011;53212;52.112;5.144;2023-04-06T02:22:43;12.00;;;10.00;;
66402;SDS011;53212;52.112;5.144;2023-04-06T02:25:08;10.60;;;8.60;;
66402;SDS011;53212;52.112;5.144;2023-04-06T02:27:34;12.50;;;9.60;;
66402;SDS011;53212;52.112;5.144;2023-04-06T02:30:01;11.40;;;9.50;;
66402;SDS011;53212;52.112;5.144;2023-04-06T02:32:27;13.10;;;9.80;;
66402;SDS011;53212;52.112;5.144;2023-04-06T02:34:53;11.60;;;8.80;;
66402;SDS011;53212;52.112;5.144;2023-04-06T02:37:18;10.60;;;8.90;;
66402;SDS011;53212;52.112;5.144;2023-04-06T02:39:44;10.60;;;9.20;;
66402;SDS011;53212;52.112;5.144;2023-04-06T02:42:10;10.60;;;8.90;;
66402;SDS011;53212;52.112;5.144;2023-04-06T02:44:36;9.50;;;8.40;;
66402;SDS011;53212;52.112;5.144;2023-04-06T02:47:01;12.90;;;8.80;;
66402;SDS011;53212;52.112;5.144;2023-04-06T02:49:27;11.30;;;8.90;;
66402;SDS011;53212;52.112;5.144;2023-04-06T02:51:52;10.10;;;8.80;;
66402;SDS011;53212;52.112;5.144;2023-04-06T02:54:18;12.70;;;9.30;;
66402;SDS011;53212;52.112;5.144;2023-04-06T02:56:43;11.10;;;9.80;;
66402;SDS011;53212;52.112;5.144;2023-04-06T02:59:09;11.20;;;9.50;;
66402;SDS011;53212;52.112;5.144;2023-04-06T03:01:35;11.60;;;9.80;;
66402;SDS011;53212;52.112;5.144;2023-04-06T03:04:01;10.50;;;9.50;;
66402;SDS011;53212;52.112;5.144;2023-04-06T03:06:27;11.10;;;10.00;;
66402;SDS011;53212;52.112;5.144;2023-04-06T03:08:52;13.60;;;9.70;;
66402;SDS011;53212;52.112;5.144;2023-04-06T03:11:18;11.70;;;9.90;;
66402;SDS011;53212;52.112;5.144;2023-04-06T03:13:44;12.40;;;10.20;;
66402;SDS011;53212;52.112;5.144;2023-04-06T03:16:09;12.60;;;9.70;;
66402;SDS011;53212;52.112;5.144;2023-04-06T03:18:35;11.90;;;10.40;;
66402;SDS011;53212;52.112;5.144;2023-04-06T03:21:00;14.10;;;10.80;;
66402;SDS011;53212;52.112;5.144;2023-04-06T03:23:26;12.70;;;10.30;;
66402;SDS011;53212;52.112;5.144;2023-04-06T03:25:51;14.50;;;11.00;;
66402;SDS011;53212;52.112;5.144;2023-04-06T03:28:17;12.30;;;10.70;;
66402;SDS011;53212;52.112;5.144;2023-04-06T03:30:43;12.30;;;10.10;;
66402;SDS011;53212;52.112;5.144;2023-04-06T03:33:08;12.10;;;10.90;;
66402;SDS011;53212;52.112;5.144;2023-04-06T03:35:33;12.50;;;11.20;;
66402;SDS011;53212;52.112;5.144;2023-04-06T03:37:59;11.90;;;10.30;;
66402;SDS011;53212;52.112;5.144;2023-04-06T03:40:24;12.00;;;10.70;;
66402;SDS011;53212;52.112;5.144;2023-04-06T03:42:50;13.30;;;11.00;;
66402;SDS011;53212;52.112;5.144;2023-04-06T03:45:16;14.80;;;11.20;;
66402;SDS011;53212;52.112;5.144;2023-04-06T03:47:41;14.80;;;11.10;;
66402;SDS011;53212;52.112;5.144;2023-04-06T03:50:07;13.00;;;11.60;;
66402;SDS011;53212;52.112;5.144;2023-04-06T03:52:34;13.20;;;10.50;;
66402;SDS011;53212;52.112;5.144;2023-04-06T03:55:01;16.60;;;11.10;;
66402;SDS011;53212;52.112;5.144;2023-04-06T03:57:26;14.20;;;12.00;;
66402;SDS011;53212;52.112;5.144;2023-04-06T03:59:52;13.90;;;11.80;;
66402;SDS011;53212;52.112;5.144;2023-04-06T04:02:17;16.90;;;11.40;;
66402;SDS011;53212;52.112;5.144;2023-04-06T04:04:43;15.30;;;12.40;;
66402;SDS011;53212;52.112;5.144;2023-04-06T04:07:08;15.00;;;12.30;;
66402;SDS011;53212;52.112;5.144;2023-04-06T04:09:33;14.00;;;12.50;;
66402;SDS011;53212;52.112;5.144;2023-04-06T04:11:59;14.80;;;11.60;;
66402;SDS011;53212;52.112;5.144;2023-04-06T04:14:25;17.10;;;12.40;;
66402;SDS011;53212;52.112;5.144;2023-04-06T04:16:50;14.40;;;12.50;;
66402;SDS011;53212;52.112;5.144;2023-04-06T04:19:16;17.50;;;12.50;;
66402;SDS011;53212;52.112;5.144;2023-04-06T04:21:45;17.50;;;13.80;;
66402;SDS011;53212;52.112;5.144;2023-04-06T04:24:12;15.10;;;12.50;;
66402;SDS011;53212;52.112;5.144;2023-04-06T04:26:38;16.30;;;12.60;;
66402;SDS011;53212;52.112;5.144;2023-04-06T04:29:04;17.20;;;13.70;;
66402;SDS011;53212;52.112;5.144;2023-04-06T04:31:30;16.50;;;12.40;;
66402;SDS011;53212;52.112;5.144;2023-04-06T04:33:56;15.20;;;12.80;;
66402;SDS011;53212;52.112;5.144;2023-04-06T04:36:22;16.60;;;12.90;;
66402;SDS011;53212;52.112;5.144;2023-04-06T04:38:49;17.30;;;13.60;;
66402;SDS011;53212;52.112;5.144;2023-04-06T04:41:15;18.30;;;13.80;;
66402;SDS011;53212;52.112;5.144;2023-04-06T04:43:40;17.20;;;14.50;;
66402;SDS011;53212;52.112;5.144;2023-04-06T04:46:06;18.40;;;13.90;;
66402;SDS011;53212;52.112;5.144;2023-04-06T04:48:32;16.20;;;13.30;;
66402;SDS011;53212;52.112;5.144;2023-04-06T04:50:57;16.80;;;13.40;;
66402;SDS011;53212;52.112;5.144;2023-04-06T04:53:22;17.10;;;14.10;;
66402;SDS011;53212;52.112;5.144;2023-04-06T04:55:48;20.00;;;13.80;;
66402;SDS011;53212;52.112;5.144;2023-04-06T04:58:13;16.20;;;12.70;;
66402;SDS011;53212;52.112;5.144;2023-04-06T05:00:43;16.80;;;13.10;;
66402;SDS011;53212;52.112;5.144;2023-04-06T05:03:09;18.00;;;13.70;;
66402;SDS011;53212;52.112;5.144;2023-04-06T05:05:42;17.40;;;13.80;;
66402;SDS011;53212;52.112;5.144;2023-04-06T05:08:07;17.80;;;13.70;;
66402;SDS011;53212;52.112;5.144;2023-04-06T05:10:32;17.40;;;13.90;;
66402;SDS011;53212;52.112;5.144;2023-04-06T05:12:59;17.00;;;14.60;;
66402;SDS011;53212;52.112;5.144;2023-04-06T05:15:25;18.60;;;14.90;;
66402;SDS011;53212;52.112;5.144;2023-04-06T05:17:50;18.60;;;14.80;;
66402;SDS011;53212;52.112;5.144;2023-04-06T05:20:16;21.00;;;16.20;;
66402;SDS011;53212;52.112;5.144;2023-04-06T05:22:41;23.60;;;16.40;;
66402;SDS011;53212;52.112;5.144;2023-04-06T05:25:07;19.60;;;16.30;;
66402;SDS011;53212;52.112;5.144;2023-04-06T05:27:33;18.30;;;15.60;;
66402;SDS011;53212;52.112;5.144;2023-04-06T05:29:59;20.40;;;16.40;;
66402;SDS011;53212;52.112;5.144;2023-04-06T05:32:24;19.60;;;15.30;;
66402;SDS011;53212;52.112;5.144;2023-04-06T05:34:50;21.70;;;16.10;;
66402;SDS011;53212;52.112;5.144;2023-04-06T05:37:16;17.60;;;15.10;;
66402;SDS011;53212;52.112;5.144;2023-04-06T05:39:41;16.80;;;14.70;;
66402;SDS011;53212;52.112;5.144;2023-04-06T05:42:07;18.40;;;14.70;;
66402;SDS011;53212;52.112;5.144;2023-04-06T05:44:32;16.90;;;14.50;;
66402;SDS011;53212;52.112;5.144;2023-04-06T05:46:58;16.90;;;14.50;;
66402;SDS011;53212;52.112;5.144;2023-04-06T05:49:23;18.20;;;14.50;;
66402;SDS011;53212;52.112;5.144;2023-04-06T05:51:49;20.30;;;15.30;;
66402;SDS011;53212;52.112;5.144;2023-04-06T05:54:14;16.90;;;15.10;;
66402;SDS011;53212;52.112;5.144;2023-04-06T05:56:40;20.80;;;15.20;;
66402;SDS011;53212;52.112;5.144;2023-04-06T05:59:06;19.10;;;15.20;;
66402;SDS011;53212;52.112;5.144;2023-04-06T06:01:32;17.60;;;15.20;;
66402;SDS011;53212;52.112;5.144;2023-04-06T06:04:00;19.80;;;15.50;;
66402;SDS011;53212;52.112;5.144;2023-04-06T06:06:27;19.30;;;15.60;;
66402;SDS011;53212;52.112;5.144;2023-04-06T06:08:53;19.10;;;15.80;;
66402;SDS011;53212;52.112;5.144;2023-04-06T06:11:19;20.70;;;16.60;;
66402;SDS011;53212;52.112;5.144;2023-04-06T06:13:44;17.80;;;15.80;;
66402;SDS011;53212;52.112;5.144;2023-04-06T06:16:10;18.50;;;15.80;;
66402;SDS011;53212;52.112;5.144;2023-04-06T06:18:35;19.70;;;16.40;;
66402;SDS011;53212;52.112;5.144;2023-04-06T06:21:02;19.80;;;16.10;;
66402;SDS011;53212;52.112;5.144;2023-04-06T06:23:28;19.40;;;16.10;;
66402;SDS011;53212;52.112;5.144;2023-04-06T06:25:53;18.90;;;15.00;;
66402;SDS011;53212;52.112;5.144;2023-04-06T06:28:19;16.70;;;14.80;;
66402;SDS011;53212;52.112;5.144;2023-04-06T06:30:44;19.10;;;14.90;;
66402;SDS011;53212;52.112;5.144;2023-04-06T06:33:10;18.30;;;16.30;;
66402;SDS011;53212;52.112;5.144;2023-04-06T06:35:36;18.60;;;16.00;;
66402;SDS011;53212;52.112;5.144;2023-04-06T06:38:01;23.10;;;16.80;;
66402;SDS011;53212;52.112;5.144;2023-04-06T06:40:27;19.90;;;15.80;;
66402;SDS011;53212;52.112;5.144;2023-04-06T06:42:52;20.30;;;16.10;;
66402;SDS011;53212;52.112;5.144;2023-04-06T06:45:18;18.00;;;16.00;;
66402;SDS011;53212;52.112;5.144;2023-04-06T06:47:43;19.50;;;16.30;;
66402;SDS011;53212;52.112;5.144;2023-04-06T06:50:09;19.20;;;16.70;;
66402;SDS011;53212;52.112;5.144;2023-04-06T06:52:34;18.60;;;16.20;;
66402;SDS011;53212;52.112;5.144;2023-04-06T06:55:00;18.20;;;16.20;;
66402;SDS011;53212;52.112;5.144;2023-04-06T06:57:26;20.10;;;16.60;;
66402;SDS011;53212;52.112;5.144;2023-04-06T06:59:51;19.00;;;16.60;;
66402;SDS011;53212;52.112;5.144;2023-04-06T07:02:17;20.10;;;16.40;;
66402;SDS011;53212;52.112;5.144;2023-04-06T07:04:42;20.90;;;17.50;;
66402;SDS011;53212;52.112;5.144;2023-04-06T07:07:08;18.40;;;16.50;;
66402;SDS011;53212;52.112;5.144;2023-04-06T07:09:35;21.40;;;16.50;;
66402;SDS011;53212;52.112;5.144;2023-04-06T07:12:00;18.80;;;16.80;;
66402;SDS011;53212;52.112;5.144;2023-04-06T07:14:27;18.40;;;16.30;;
66402;SDS011;53212;52.112;5.144;2023-04-06T07:16:52;22.10;;;16.70;;
66402;SDS011;53212;52.112;5.144;2023-04-06T07:19:18;19.50;;;16.80;;
66402;SDS011;53212;52.112;5.144;2023-04-06T07:21:43;22.30;;;17.10;;
66402;SDS011;53212;52.112;5.144;2023-04-06T07:24:08;21.70;;;17.00;;
66402;SDS011;53212;52.112;5.144;2023-04-06T07:26:34;19.80;;;16.90;;
66402;SDS011;53212;52.112;5.144;2023-04-06T07:29:00;22.00;;;17.80;;
66402;SDS011;53212;52.112;5.144;2023-04-06T07:31:25;22.90;;;17.30;;
66402;SDS011;53212;52.112;5.144;2023-04-06T07:33:51;20.70;;;17.40;;
66402;SDS011;53212;52.112;5.144;2023-04-06T07:36:16;21.80;;;17.80;;
66402;SDS011;53212;52.112;5.144;2023-04-06T07:38:42;21.60;;;17.00;;
66402;SDS011;53212;52.112;5.144;2023-04-06T07:41:07;22.70;;;17.70;;
66402;SDS011;53212;52.112;5.144;2023-04-06T07:43:32;23.60;;;17.00;;
66402;SDS011;53212;52.112;5.144;2023-04-06T07:45:58;22.10;;;17.70;;
66402;SDS011;53212;52.112;5.144;2023-04-06T07:48:25;19.00;;;16.60;;
66402;SDS011;53212;52.112;5.144;2023-04-06T07:50:51;19.70;;;17.50;;
66402;SDS011;53212;52.112;5.144;2023-04-06T07:53:16;23.20;;;17.50;;
66402;SDS011;53212;52.112;5.144;2023-04-06T07:55:42;20.10;;;17.40;;
66402;SDS011;53212;52.112;5.144;2023-04-06T07:58:07;24.50;;;17.30;;
66402;SDS011;53212;52.112;5.144;2023-04-06T08:00:33;20.10;;;16.70;;
66402;SDS011;53212;52.112;5.144;2023-04-06T08:02:58;20.80;;;16.80;;
66402;SDS011;53212;52.112;5.144;2023-04-06T08:05:24;22.20;;;17.20;;
66402;SDS011;53212;52.112;5.144;2023-04-06T08:07:49;20.60;;;17.20;;
66402;SDS011;53212;52.112;5.144;2023-04-06T08:10:15;23.30;;;18.10;;
66402;SDS011;53212;52.112;5.144;2023-04-06T08:12:40;20.40;;;17.10;;
66402;SDS011;53212;52.112;5.144;2023-04-06T08:15:06;21.00;;;18.20;;
66402;SDS011;53212;52.112;5.144;2023-04-06T08:17:32;20.50;;;17.90;;
66402;SDS011;53212;52.112;5.144;2023-04-06T08:19:59;21.90;;;17.90;;
66402;SDS011;53212;52.112;5.144;2023-04-06T08:22:25;19.30;;;17.10;;
66402;SDS011;53212;52.112;5.144;2023-04-06T08:24:51;21.60;;;18.00;;
66402;SDS011;53212;52.112;5.144;2023-04-06T08:27:16;21.00;;;18.10;;
66402;SDS011;53212;52.112;5.144;2023-04-06T08:29:42;22.70;;;15.90;;
66402;SDS011;53212;52.112;5.144;2023-04-06T08:32:07;23.50;;;17.70;;
66402;SDS011;53212;52.112;5.144;2023-04-06T08:34:33;19.60;;;17.50;;
66402;SDS011;53212;52.112;5.144;2023-04-06T08:36:59;20.00;;;17.60;;
66402;SDS011;53212;52.112;5.144;2023-04-06T08:39:24;19.30;;;17.10;;
66402;SDS011;53212;52.112;5.144;2023-04-06T08:41:52;20.60;;;17.40;;
66402;SDS011;53212;52.112;5.144;2023-04-06T08:44:22;19.30;;;17.10;;
66402;SDS011;53212;52.112;5.144;2023-04-06T08:46:48;21.40;;;18.50;;
66402;SDS011;53212;52.112;5.144;2023-04-06T08:49:15;22.20;;;17.20;;
66402;SDS011;53212;52.112;5.144;2023-04-06T08:51:41;20.90;;;17.20;;
66402;SDS011;53212;52.112;5.144;2023-04-06T08:54:09;24.40;;;18.10;;
66402;SDS011;53212;52.112;5.144;2023-04-06T08:56:37;18.90;;;16.40;;
66402;SDS011;53212;52.112;5.144;2023-04-06T08:59:04;25.20;;;18.80;;
66402;SDS011;53212;52.112;5.144;2023-04-06T09:01:31;21.70;;;17.90;;
66402;SDS011;53212;52.112;5.144;2023-04-06T09:04:02;21.90;;;17.50;;
66402;SDS011;53212;52.112;5.144;2023-04-06T09:06:34;20.40;;;16.30;;
66402;SDS011;53212;52.112;5.144;2023-04-06T09:08:59;22.70;;;17.80;;
66402;SDS011;53212;52.112;5.144;2023-04-06T09:11:25;21.50;;;17.60;;
66402;SDS011;53212;52.112;5.144;2023-04-06T09:13:52;21.20;;;17.70;;
66402;SDS011;53212;52.112;5.144;2023-04-06T09:16:20;22.50;;;18.60;;
66402;SDS011;53212;52.112;5.144;2023-04-06T09:18:46;24.70;;;18.90;;
66402;SDS011;53212;52.112;5.144;2023-04-06T09:21:13;26.10;;;19.00;;
66402;SDS011;53212;52.112;5.144;2023-04-06T09:23:41;25.00;;;19.30;;
66402;SDS011;53212;52.112;5.144;2023-04-06T09:26:12;22.40;;;19.10;;
66402;SDS011;53212;52.112;5.144;2023-04-06T09:28:46;26.30;;;19.80;;
66402;SDS011;53212;52.112;5.144;2023-04-06T09:31:17;25.20;;;19.10;;
66402;SDS011;53212;52.112;5.144;2023-04-06T09:33:47;27.60;;;20.30;;
66402;SDS011;53212;52.112;5.144;2023-04-06T09:36:13;22.50;;;18.60;;
66402;SDS011;53212;52.112;5.144;2023-04-06T09:39:02;26.60;;;19.90;;
66402;SDS011;53212;52.112;5.144;2023-04-06T09:41:33;26.40;;;20.70;;
66402;SDS011;53212;52.112;5.144;2023-04-06T09:46:41;25.80;;;20.40;;
66402;SDS011;53212;52.112;5.144;2023-04-06T09:49:08;29.40;;;20.60;;
66402;SDS011;53212;52.112;5.144;2023-04-06T09:51:49;23.30;;;19.70;;
66402;SDS011;53212;52.112;5.144;2023-04-06T09:54:28;28.50;;;19.90;;
66402;SDS011;53212;52.112;5.144;2023-04-06T09:57:21;25.80;;;19.90;;
66402;SDS011;53212;52.112;5.144;2023-04-06T10:00:11;19.60;;;17.50;;
66402;SDS011;53212;52.112;5.144;2023-04-06T10:03:11;22.60;;;18.30;;
66402;SDS011;53212;52.112;5.144;2023-04-06T10:05:57;23.50;;;18.30;;
66402;SDS011;53212;52.112;5.144;2023-04-06T10:08:27;21.70;;;17.60;;
66402;SDS011;53212;52.112;5.144;2023-04-06T10:10:54;22.00;;;15.50;;
66402;SDS011;53212;52.112;5.144;2023-04-06T10:13:20;15.50;;;12.40;;
66402;SDS011;53212;52.112;5.144;2023-04-06T10:15:48;14.10;;;12.10;;
66402;SDS011;53212;52.112;5.144;2023-04-06T10:18:15;15.30;;;12.20;;
66402;SDS011;53212;52.112;5.144;2023-04-06T10:20:55;15.50;;;13.00;;
66402;SDS011;53212;52.112;5.144;2023-04-06T10:26:05;15.30;;;11.30;;
66402;SDS011;53212;52.112;5.144;2023-04-06T10:28:35;13.90;;;11.30;;
66402;SDS011;53212;52.112;5.144;2023-04-06T10:31:04;11.60;;;10.20;;
66402;SDS011;53212;52.112;5.144;2023-04-06T10:33:30;13.70;;;9.70;;
66402;SDS011;53212;52.112;5.144;2023-04-06T10:35:56;10.10;;;8.90;;
66402;SDS011;53212;52.112;5.144;2023-04-06T10:38:33;9.40;;;8.40;;
66402;SDS011;53212;52.112;5.144;2023-04-06T10:41:04;9.00;;;8.10;;
66402;SDS011;53212;52.112;5.144;2023-04-06T10:43:33;10.30;;;8.10;;
66402;SDS011;53212;52.112;5.144;2023-04-06T10:46:00;8.30;;;7.30;;
66402;SDS011;53212;52.112;5.144;2023-04-06T10:51:10;8.20;;;7.40;;
66402;SDS011;53212;52.112;5.144;2023-04-06T10:53:37;8.60;;;7.20;;
66402;SDS011;53212;52.112;5.144;2023-04-06T10:56:04;7.80;;;7.00;;
66402;SDS011;53212;52.112;5.144;2023-04-06T10:58:36;8.20;;;7.30;;
66402;SDS011;53212;52.112;5.144;2023-04-06T11:01:01;8.00;;;7.20;;
66402;SDS011;53212;52.112;5.144;2023-04-06T11:03:27;7.30;;;6.60;;
66402;SDS011;53212;52.112;5.144;2023-04-06T11:05:53;7.40;;;6.70;;
66402;SDS011;53212;52.112;5.144;2023-04-06T11:08:38;6.80;;;6.20;;
66402;SDS011;53212;52.112;5.144;2023-04-06T11:11:08;7.10;;;6.40;;
66402;SDS011;53212;52.112;5.144;2023-04-06T11:13:40;7.20;;;6.00;;
66402;SDS011;53212;52.112;5.144;2023-04-06T11:16:06;6.80;;;6.10;;
66402;SDS011;53212;52.112;5.144;2023-04-06T11:18:31;6.60;;;5.80;;
66402;SDS011;53212;52.112;5.144;2023-04-06T11:20:57;6.70;;;6.00;;
66402;SDS011;53212;52.112;5.144;2023-04-06T11:23:24;6.70;;;6.10;;
66402;SDS011;53212;52.112;5.144;2023-04-06T11:25:53;6.40;;;5.90;;
66402;SDS011;53212;52.112;5.144;2023-04-06T11:28:19;7.50;;;5.60;;
66402;SDS011;53212;52.112;5.144;2023-04-06T11:30:46;6.90;;;6.20;;
66402;SDS011;53212;52.112;5.144;2023-04-06T11:33:22;6.80;;;5.90;;
66402;SDS011;53212;52.112;5.144;2023-04-06T11:35:48;6.70;;;6.10;;
66402;SDS011;53212;52.112;5.144;2023-04-06T11:38:14;6.90;;;6.00;;
66402;SDS011;53212;52.112;5.144;2023-04-06T11:40:39;7.30;;;6.00;;
66402;SDS011;53212;52.112;5.144;2023-04-06T11:43:05;6.80;;;5.40;;
66402;SDS011;53212;52.112;5.144;2023-04-06T11:45:42;6.30;;;5.70;;
66402;SDS011;53212;52.112;5.144;2023-04-06T11:48:20;8.90;;;6.00;;
66402;SDS011;53212;52.112;5.144;2023-04-06T11:50:47;6.10;;;5.30;;
66402;SDS011;53212;52.112;5.144;2023-04-06T11:53:14;6.60;;;5.90;;
66402;SDS011;53212;52.112;5.144;2023-04-06T11:55:39;5.80;;;5.20;;
66402;SDS011;53212;52.112;5.144;2023-04-06T11:58:05;6.60;;;6.00;;
66402;SDS011;53212;52.112;5.144;2023-04-06T12:00:32;6.50;;;5.90;;
66402;SDS011;53212;52.112;5.144;2023-04-06T12:03:00;5.90;;;4.90;;
66402;SDS011;53212;52.112;5.144;2023-04-06T12:05:26;6.70;;;6.10;;
66402;SDS011;53212;52.112;5.144;2023-04-06T12:07:52;6.30;;;5.70;;
66402;SDS011;53212;52.112;5.144;2023-04-06T12:10:17;6.60;;;5.90;;
66402;SDS011;53212;52.112;5.144;2023-04-06T12:12:43;6.30;;;5.70;;
66402;SDS011;53212;52.112;5.144;2023-04-06T12:15:09;7.40;;;6.50;;
66402;SDS011;53212;52.112;5.144;2023-04-06T12:17:35;6.30;;;5.70;;
66402;SDS011;53212;52.112;5.144;2023-04-06T12:20:01;7.20;;;6.50;;
66402;SDS011;53212;52.112;5.144;2023-04-06T12:22:27;7.30;;;6.60;;
66402;SDS011;53212;52.112;5.144;2023-04-06T12:24:53;9.20;;;6.30;;
66402;SDS011;53212;52.112;5.144;2023-04-06T12:27:19;7.70;;;6.90;;
66402;SDS011;53212;52.112;5.144;2023-04-06T12:29:45;8.30;;;7.00;;
66402;SDS011;53212;52.112;5.144;2023-04-06T12:32:10;8.30;;;7.50;;
66402;SDS011;53212;52.112;5.144;2023-04-06T12:34:37;8.70;;;7.90;;
66402;SDS011;53212;52.112;5.144;2023-04-06T12:37:03;8.40;;;7.60;;
66402;SDS011;53212;52.112;5.144;2023-04-06T12:39:28;8.40;;;7.60;;
66402;SDS011;53212;52.112;5.144;2023-04-06T12:41:55;8.00;;;7.30;;
66402;SDS011;53212;52.112;5.144;2023-04-06T12:44:21;9.20;;;7.70;;
66402;SDS011;53212;52.112;5.144;2023-04-06T12:46:47;9.40;;;8.10;;
66402;SDS011;53212;52.112;5.144;2023-04-06T12:49:12;9.10;;;7.80;;
66402;SDS011;53212;52.112;5.144;2023-04-06T12:51:37;8.50;;;7.70;;
66402;SDS011;53212;52.112;5.144;2023-04-06T12:54:03;8.00;;;7.20;;
66402;SDS011;53212;52.112;5.144;2023-04-06T12:56:28;8.60;;;7.70;;
66402;SDS011;53212;52.112;5.144;2023-04-06T12:58:54;10.50;;;8.90;;
66402;SDS011;53212;52.112;5.144;2023-04-06T13:01:20;10.90;;;8.00;;
66402;SDS011;53212;52.112;5.144;2023-04-06T13:03:46;9.80;;;8.50;;
66402;SDS011;53212;52.112;5.144;2023-04-06T13:06:11;9.10;;;8.30;;
66402;SDS011;53212;52.112;5.144;2023-04-06T13:08:39;9.30;;;8.30;;
66402;SDS011;53212;52.112;5.144;2023-04-06T13:11:05;10.50;;;8.90;;
66402;SDS011;53212;52.112;5.144;2023-04-06T13:13:33;9.20;;;8.30;;
66402;SDS011;53212;52.112;5.144;2023-04-06T13:16:04;9.30;;;8.40;;
66402;SDS011;53212;52.112;5.144;2023-04-06T13:18:32;9.40;;;8.40;;
66402;SDS011;53212;52.112;5.144;2023-04-06T13:20:59;10.30;;;8.70;;
66402;SDS011;53212;52.112;5.144;2023-04-06T13:23:25;9.90;;;8.60;;
66402;SDS011;53212;52.112;5.144;2023-04-06T13:26:17;9.30;;;8.40;;
66402;SDS011;53212;52.112;5.144;2023-04-06T13:28:42;9.70;;;7.70;;
66402;SDS011;53212;52.112;5.144;2023-04-06T13:31:08;8.70;;;7.90;;
66402;SDS011;53212;52.112;5.144;2023-04-06T13:33:34;8.80;;;7.90;;
66402;SDS011;53212;52.112;5.144;2023-04-06T13:36:01;9.60;;;8.60;;
66402;SDS011;53212;52.112;5.144;2023-04-06T13:38:27;9.80;;;8.80;;
66402;SDS011;53212;52.112;5.144;2023-04-06T13:40:53;9.10;;;8.20;;
66402;SDS011;53212;52.112;5.144;2023-04-06T13:43:18;9.70;;;8.50;;
66402;SDS011;53212;52.112;5.144;2023-04-06T13:45:50;9.40;;;8.50;;
66402;SDS011;53212;52.112;5.144;2023-04-06T13:48:17;11.30;;;9.20;;
66402;SDS011;53212;52.112;5.144;2023-04-06T13:50:43;10.40;;;9.10;;
66402;SDS011;53212;52.112;5.144;2023-04-06T13:53:10;9.60;;;8.20;;
66402;SDS011;53212;52.112;5.144;2023-04-06T13:55:35;9.50;;;8.50;;
66402;SDS011;53212;52.112;5.144;2023-04-06T13:58:01;10.00;;;8.60;;
66402;SDS011;53212;52.112;5.144;2023-04-06T14:00:26;9.40;;;8.50;;
66402;SDS011;53212;52.112;5.144;2023-04-06T14:02:53;11.50;;;9.00;;
66402;SDS011;53212;52.112;5.144;2023-04-06T14:05:20;9.50;;;8.40;;
66402;SDS011;53212;52.112;5.144;2023-04-06T14:07:47;9.70;;;8.70;;
66402;SDS011;53212;52.112;5.144;2023-04-06T14:10:13;9.90;;;8.90;;
66402;SDS011;53212;52.112;5.144;2023-04-06T14:12:45;9.70;;;8.80;;
66402;SDS011;53212;52.112;5.144;2023-04-06T14:15:11;9.80;;;8.90;;
66402;SDS011;53212;52.112;5.144;2023-04-06T14:17:37;9.40;;;8.40;;
66402;SDS011;53212;52.112;5.144;2023-04-06T14:20:05;9.10;;;8.20;;
66402;SDS011;53212;52.112;5.144;2023-04-06T14:22:31;10.50;;;9.20;;
66402;SDS011;53212;52.112;5.144;2023-04-06T14:24:57;10.40;;;9.30;;
66402;SDS011;53212;52.112;5.144;2023-04-06T14:27:23;10.10;;;9.00;;
66402;SDS011;53212;52.112;5.144;2023-04-06T14:29:49;9.00;;;8.20;;
66402;SDS011;53212;52.112;5.144;2023-04-06T14:32:14;10.00;;;9.10;;
66402;SDS011;53212;52.112;5.144;2023-04-06T14:34:40;9.90;;;8.90;;